Time,TemperatureF,DewpointF,PressureIn,WindDirection,WindDirectionDegrees,WindSpeedMPH,WindSpeedGustMPH,Humidity,HourlyPrecipIn,Conditions,Clouds,dailyrainin,SolarRadiationWatts/m^2,SoftwareType,DateUTC
2013-03-25 00:00:00,50.5,4.5,29.93,NE,39,0.0,10.0,15,0.00,,,0.00,0,Wunderground v.1.15,2013-03-25 07:00:00,
2013-03-25 00:10:00,49.8,3.9,29.93,NE,39,0.0,10.0,15,0.00,,,0.00,0,Wunderground v.1.15,2013-03-25 07:10:00,
2013-03-25 00:20:00,48.9,4.6,29.93,NE,39,0.0,10.0,16,0.00,,,0.00,0,Wunderground v.1.15,2013-03-25 07:20:00,
2013-03-25 00:30:00,47.8,5.0,29.94,NE,39,0.0,10.0,17,0.00,,,0.00,0,Wunderground v.1.15,2013-03-25 07:30:00,
2013-03-25 00:40:00,46.6,5.3,29.93,NE,39,0.0,10.0,18,0.00,,,0.00,0,Wunderground v.1.15,2013-03-25 07:40:00,
2013-03-25 00:50:00,45.7,5.7,29.93,West,274,0.0,10.0,19,0.00,,,0.00,0,Wunderground v.1.15,2013-03-25 07:50:00,
2013-03-25 01:00:00,45.0,6.3,29.93,NW,319,0.0,10.0,20,0.00,,,0.00,0,Wunderground v.1.15,2013-03-25 08:00:00,
2013-03-25 01:10:00,45.1,5.2,29.93,NW,319,0.0,10.0,19,0.00,,,0.00,0,Wunderground v.1.15,2013-03-25 08:10:00,
2013-03-25 01:20:00,45.9,5.9,29.93,SSW,207,0.0,10.0,19,0.00,,,0.00,0,Wunderground v.1.15,2013-03-25 08:20:00,
2013-03-25 01:30:00,45.6,6.8,29.92,WSW,249,0.0,10.0,20,0.00,,,0.00,0,Wunderground v.1.15,2013-03-25 08:30:00,
2013-03-25 01:40:00,44.8,6.1,29.92,WSW,249,0.0,10.0,20,0.00,,,0.00,0,Wunderground v.1.15,2013-03-25 08:40:00,
2013-03-25 01:50:00,44.1,5.5,29.92,WSW,249,0.0,10.0,20,0.00,,,0.00,0,Wunderground v.1.15,2013-03-25 08:50:00,
2013-03-25 02:00:00,44.2,5.6,29.92,WSW,249,0.0,10.0,20,0.00,,,0.00,0,Wunderground v.1.15,2013-03-25 09:00:00,
2013-03-25 02:10:00,44.6,5.9,29.92,West,261,0.0,10.0,20,0.00,,,0.00,0,Wunderground v.1.15,2013-03-25 09:10:00,
2013-03-25 02:20:00,46.1,6.0,29.92,WNW,297,0.0,10.0,19,0.00,,,0.00,0,Wunderground v.1.15,2013-03-25 09:20:00,
2013-03-25 02:30:00,46.6,5.3,29.92,WNW,302,0.0,10.0,18,0.00,,,0.00,0,Wunderground v.1.15,2013-03-25 09:30:00,
2013-03-25 02:40:00,46.9,4.3,29.92,WNW,302,0.0,10.0,17,0.00,,,0.00,0,Wunderground v.1.15,2013-03-25 09:40:00,
2013-03-25 02:50:00,46.4,6.3,29.92,SE,134,0.0,10.0,19,0.00,,,0.00,0,Wunderground v.1.15,2013-03-25 09:50:00,
2013-03-25 03:00:00,45.1,7.4,29.93,SE,135,0.0,10.0,21,0.00,,,0.00,0,Wunderground v.1.15,2013-03-25 10:00:00,
2013-03-25 03:10:00,43.6,7.2,29.93,SSE,148,0.0,10.0,22,0.00,,,0.00,0,Wunderground v.1.15,2013-03-25 10:10:00,
2013-03-25 03:19:00,41.7,6.6,29.92,SSE,157,0.0,10.0,23,0.00,,,0.00,0,Wunderground v.1.15,2013-03-25 10:19:00,
2013-03-25 03:30:00,41.0,6.9,29.92,SSE,157,0.0,10.0,24,0.00,,,0.00,0,Wunderground v.1.15,2013-03-25 10:30:00,
2013-03-25 03:40:00,40.6,6.6,29.93,SSE,157,0.0,10.0,24,0.00,,,0.00,0,Wunderground v.1.15,2013-03-25 10:40:00,
2013-03-25 03:50:00,40.1,7.0,29.93,SE,134,0.0,10.0,25,0.00,,,0.00,0,Wunderground v.1.15,2013-03-25 10:50:00,
2013-03-25 04:00:00,39.7,7.6,29.93,SE,134,0.0,10.0,26,0.00,,,0.00,0,Wunderground v.1.15,2013-03-25 11:00:00,
2013-03-25 04:10:00,38.4,7.3,29.93,SW,217,0.0,10.0,27,0.00,,,0.00,0,Wunderground v.1.15,2013-03-25 11:10:00,
2013-03-25 04:20:00,38.4,7.3,29.93,SW,217,0.0,10.0,27,0.00,,,0.00,0,Wunderground v.1.15,2013-03-25 11:20:00,
2013-03-25 04:29:00,38.7,7.5,29.93,SW,217,0.0,10.0,27,0.00,,,0.00,0,Wunderground v.1.15,2013-03-25 11:29:00,
2013-03-25 04:40:00,39.0,7.8,29.93,SW,230,0.0,10.0,27,0.00,,,0.00,0,Wunderground v.1.15,2013-03-25 11:40:00,
2013-03-25 04:49:00,38.5,8.9,29.93,East,88,0.0,10.0,29,0.00,,,0.00,0,Wunderground v.1.15,2013-03-25 11:49:00,
2013-03-25 05:00:00,37.7,9.0,29.93,East,88,0.0,10.0,30,0.00,,,0.00,0,Wunderground v.1.15,2013-03-25 12:00:00,
2013-03-25 05:10:00,36.4,9.3,29.94,East,88,0.0,10.0,32,0.00,,,0.00,0,Wunderground v.1.15,2013-03-25 12:10:00,
2013-03-25 05:20:00,35.2,8.9,29.93,East,88,0.0,10.0,33,0.00,,,0.00,0,Wunderground v.1.15,2013-03-25 12:20:00,
2013-03-25 05:30:00,34.8,8.6,29.94,East,88,0.0,10.0,33,0.00,,,0.00,0,Wunderground v.1.15,2013-03-25 12:30:00,
2013-03-25 05:39:00,35.1,8.8,29.94,East,88,0.0,10.0,33,0.00,,,0.00,0,Wunderground v.1.15,2013-03-25 12:39:00,
2013-03-25 05:50:00,35.5,7.8,29.95,East,88,0.0,10.0,31,0.00,,,0.00,0,Wunderground v.1.15,2013-03-25 12:50:00,
2013-03-25 06:00:00,35.2,10.2,29.95,SE,138,0.0,10.0,35,0.00,,,0.00,0,Wunderground v.1.15,2013-03-25 13:00:00,
2013-03-25 06:10:00,34.3,10.1,29.96,South,171,0.0,0.0,36,0.00,,,0.00,0,Wunderground v.1.15,2013-03-25 13:10:00,
2013-03-25 06:19:00,33.8,9.6,29.96,SSW,202,0.0,0.0,36,0.00,,,0.00,7,Wunderground v.1.15,2013-03-25 13:19:00,
2013-03-25 06:30:00,33.5,10.0,29.97,SSW,205,0.0,0.0,37,0.00,,,0.00,14,Wunderground v.1.15,2013-03-25 13:30:00,
2013-03-25 06:40:00,33.9,10.3,29.97,SSW,207,0.0,0.0,37,0.00,,,0.00,26,Wunderground v.1.15,2013-03-25 13:40:00,
2013-03-25 06:50:00,35.3,11.6,29.97,SSW,207,0.0,0.0,37,0.00,,,0.00,54,Wunderground v.1.15,2013-03-25 13:50:00,
2013-03-25 07:00:00,37.5,11.6,29.98,SSW,207,0.0,0.0,34,0.00,,,0.00,90,Wunderground v.1.15,2013-03-25 14:00:00,
2013-03-25 07:10:00,39.7,12.2,29.98,SSW,207,0.0,0.0,32,0.00,,,0.00,130,Wunderground v.1.15,2013-03-25 14:10:00,
2013-03-25 07:20:00,42.0,10.4,29.98,SSW,207,0.0,0.0,27,0.00,,,0.00,178,Wunderground v.1.15,2013-03-25 14:20:00,
2013-03-25 07:29:00,45.1,10.4,29.98,South,173,0.0,0.0,24,0.00,,,0.00,220,Wunderground v.1.15,2013-03-25 14:29:00,
2013-03-25 07:40:00,47.5,10.5,29.98,SSE,161,0.0,0.0,22,0.00,,,0.00,260,Wunderground v.1.15,2013-03-25 14:40:00,
2013-03-25 07:50:00,49.4,11.0,29.98,SSE,161,0.0,0.0,21,0.00,,,0.00,297,Wunderground v.1.15,2013-03-25 14:50:00,
2013-03-25 07:59:00,50.9,11.2,29.98,SSE,161,0.0,0.0,20,0.00,,,0.00,338,Wunderground v.1.15,2013-03-25 14:59:00,
2013-03-25 08:10:00,52.5,8.9,29.99,SSE,161,0.0,0.0,17,0.00,,,0.00,376,Wunderground v.1.15,2013-03-25 15:10:00,
2013-03-25 08:20:00,54.5,9.1,29.99,SSE,161,0.0,0.0,16,0.00,,,0.00,411,Wunderground v.1.15,2013-03-25 15:20:00,
2013-03-25 08:29:00,56.6,10.9,29.99,SSE,161,0.0,0.0,16,0.00,,,0.00,452,Wunderground v.1.15,2013-03-25 15:29:00,
2013-03-25 08:40:00,58.2,9.1,29.99,NNE,14,0.0,0.0,14,0.00,,,0.00,489,Wunderground v.1.15,2013-03-25 15:40:00,
2013-03-25 08:50:00,59.3,11.6,29.99,ENE,74,1.0,1.0,15,0.00,,,0.00,522,Wunderground v.1.15,2013-03-25 15:50:00,
2013-03-25 08:59:00,60.0,10.6,29.99,NE,48,0.0,0.0,14,0.00,,,0.00,557,Wunderground v.1.15,2013-03-25 15:59:00,
2013-03-25 09:09:00,61.1,11.5,29.99,NE,48,0.0,0.0,14,0.00,,,0.00,589,Wunderground v.1.15,2013-03-25 16:09:00,
2013-03-25 09:19:00,62.1,10.6,29.99,North,11,0.0,0.0,13,0.00,,,0.00,624,Wunderground v.1.15,2013-03-25 16:19:00,
2013-03-25 09:29:00,62.6,11.0,30.00,North,5,0.0,0.0,13,0.00,,,0.00,652,Wunderground v.1.15,2013-03-25 16:29:00,
2013-03-25 09:39:00,63.2,11.5,30.00,ENE,60,0.0,0.0,13,0.00,,,0.00,686,Wunderground v.1.15,2013-03-25 16:39:00,
2013-03-25 09:49:00,63.1,11.4,30.00,WNW,284,0.0,0.0,13,0.00,,,0.00,710,Wunderground v.1.15,2013-03-25 16:49:00,
2013-03-25 09:59:00,64.1,12.2,29.99,South,174,0.0,0.0,13,0.00,,,0.00,738,Wunderground v.1.15,2013-03-25 16:59:00,
2013-03-25 10:10:00,65.8,11.7,29.99,NE,34,0.0,0.0,12,0.00,,,0.00,765,Wunderground v.1.15,2013-03-25 17:10:00,
2013-03-25 10:19:00,65.9,11.8,29.99,NE,46,0.0,0.0,12,0.00,,,0.00,789,Wunderground v.1.15,2013-03-25 17:19:00,
2013-03-25 10:29:00,65.9,11.8,29.99,SE,133,1.0,1.0,12,0.00,,,0.00,810,Wunderground v.1.15,2013-03-25 17:29:00,
2013-03-25 10:39:00,66.6,12.3,29.99,SSE,165,0.0,0.0,12,0.00,,,0.00,831,Wunderground v.1.15,2013-03-25 17:39:00,
2013-03-25 10:49:00,68.0,11.5,29.98,SSW,192,0.0,0.0,11,0.00,,,0.00,851,Wunderground v.1.15,2013-03-25 17:49:00,
2013-03-25 10:59:00,68.8,12.1,29.98,SW,236,0.0,0.0,11,0.00,,,0.00,868,Wunderground v.1.15,2013-03-25 17:59:00,
2013-03-25 11:09:00,69.1,12.3,29.98,ENE,64,0.0,0.0,11,0.00,,,0.00,881,Wunderground v.1.15,2013-03-25 18:09:00,
2013-03-25 11:20:00,68.4,11.8,29.97,East,84,1.0,5.0,11,0.00,,,0.00,900,Wunderground v.1.15,2013-03-25 18:20:00,
2013-03-25 11:29:00,67.7,11.2,29.97,East,94,2.0,3.0,11,0.00,,,0.00,912,Wunderground v.1.15,2013-03-25 18:29:00,
2013-03-25 11:39:00,67.3,12.9,29.97,ESE,118,2.0,7.0,12,0.00,,,0.00,921,Wunderground v.1.15,2013-03-25 18:39:00,
2013-03-25 11:49:00,67.8,13.3,29.97,ENE,63,3.0,4.0,12,0.00,,,0.00,935,Wunderground v.1.15,2013-03-25 18:49:00,
2013-03-25 12:00:00,68.0,11.5,29.97,East,99,2.0,5.0,11,0.00,,,0.00,935,Wunderground v.1.15,2013-03-25 19:00:00,
2013-03-25 12:09:00,69.1,12.3,29.96,SE,138,1.0,1.0,11,0.00,,,0.00,937,Wunderground v.1.15,2013-03-25 19:09:00,
2013-03-25 12:19:00,69.7,12.8,29.96,East,96,1.0,6.0,11,0.00,,,0.00,940,Wunderground v.1.15,2013-03-25 19:19:00,
2013-03-25 12:30:00,70.3,11.1,29.95,North,9,2.0,2.0,10,0.00,,,0.00,940,Wunderground v.1.15,2013-03-25 19:30:00,
2013-03-25 12:39:00,69.5,10.5,29.95,NNE,17,5.0,5.0,10,0.00,,,0.00,937,Wunderground v.1.15,2013-03-25 19:39:00,
2013-03-25 12:49:00,69.3,12.5,29.94,WNW,283,3.0,3.0,11,0.00,,,0.00,933,Wunderground v.1.15,2013-03-25 19:49:00,
2013-03-25 12:59:00,69.8,10.7,29.94,NW,313,4.0,6.0,10,0.00,,,0.00,932,Wunderground v.1.15,2013-03-25 19:59:00,
2013-03-25 13:09:00,70.3,11.1,29.94,West,273,2.0,2.0,10,0.00,,,0.00,921,Wunderground v.1.15,2013-03-25 20:09:00,
2013-03-25 13:19:00,71.0,9.3,29.94,WNW,292,1.0,6.0,9,0.00,,,0.00,923,Wunderground v.1.15,2013-03-25 20:19:00,
2013-03-25 13:29:00,71.0,9.3,29.93,North,349,3.0,7.0,9,0.00,,,0.00,900,Wunderground v.1.15,2013-03-25 20:29:00,
2013-03-25 13:39:00,71.3,9.5,29.93,NNW,328,3.0,3.0,9,0.00,,,0.00,888,Wunderground v.1.15,2013-03-25 20:39:00,
2013-03-25 13:49:00,71.1,9.3,29.92,NW,311,5.0,5.0,9,0.00,,,0.00,875,Wunderground v.1.15,2013-03-25 20:49:00,
2013-03-25 13:59:00,71.4,11.9,29.92,West,263,2.0,6.0,10,0.00,,,0.00,856,Wunderground v.1.15,2013-03-25 20:59:00,
2013-03-25 14:09:00,72.8,10.6,29.92,SW,230,1.0,1.0,9,0.00,,,0.00,838,Wunderground v.1.15,2013-03-25 21:09:00,
2013-03-25 14:19:00,73.8,11.4,29.91,NW,314,1.0,6.0,9,0.00,,,0.00,817,Wunderground v.1.15,2013-03-25 21:19:00,
2013-03-25 14:29:00,72.7,10.5,29.92,ENE,69,5.0,5.0,9,0.00,,,0.00,796,Wunderground v.1.15,2013-03-25 21:29:00,
2013-03-25 14:40:00,72.8,10.6,29.91,SSE,159,2.0,2.0,9,0.00,,,0.00,777,Wunderground v.1.15,2013-03-25 21:40:00,
2013-03-25 14:49:00,72.2,10.2,29.90,NE,49,2.0,2.0,9,0.00,,,0.00,752,Wunderground v.1.15,2013-03-25 21:49:00,
2013-03-25 14:59:00,73.0,10.8,29.90,NNE,13,3.0,9.0,9,0.00,,,0.00,726,Wunderground v.1.15,2013-03-25 21:59:00,
2013-03-25 15:09:00,72.8,10.6,29.90,North,9,7.0,7.0,9,0.00,,,0.00,696,Wunderground v.1.15,2013-03-25 22:09:00,
2013-03-25 15:19:00,73.0,10.8,29.90,NNE,25,5.0,5.0,9,0.00,,,0.00,668,Wunderground v.1.15,2013-03-25 22:19:00,
2013-03-25 15:29:00,72.6,10.5,29.89,NNE,17,6.0,6.0,9,0.00,,,0.00,636,Wunderground v.1.15,2013-03-25 22:29:00,
2013-03-25 15:39:00,72.9,10.7,29.89,NNW,341,6.0,6.0,9,0.00,,,0.00,605,Wunderground v.1.15,2013-03-25 22:39:00,
2013-03-25 15:49:00,72.6,10.5,29.88,NE,34,5.0,5.0,9,0.00,,,0.00,570,Wunderground v.1.15,2013-03-25 22:49:00,
2013-03-25 15:59:00,72.8,10.6,29.88,NNE,26,4.0,4.0,9,0.00,,,0.00,540,Wunderground v.1.15,2013-03-25 22:59:00,
2013-03-25 16:09:00,73.1,10.8,29.89,NE,39,4.0,12.0,9,0.00,,,0.00,504,Wunderground v.1.15,2013-03-25 23:09:00,
2013-03-25 16:19:00,72.4,10.3,29.89,NE,51,4.0,4.0,9,0.00,,,0.00,466,Wunderground v.1.15,2013-03-25 23:19:00,
2013-03-25 16:29:00,72.3,10.2,29.88,NE,49,2.0,2.0,9,0.00,,,0.00,429,Wunderground v.1.15,2013-03-25 23:29:00,
2013-03-25 16:39:00,72.7,10.5,29.88,NNE,25,2.0,12.0,9,0.00,,,0.00,392,Wunderground v.1.15,2013-03-25 23:39:00,
2013-03-25 16:49:00,72.5,10.4,29.88,ENE,63,2.0,2.0,9,0.00,,,0.00,353,Wunderground v.1.15,2013-03-25 23:49:00,
2013-03-25 16:59:00,72.5,10.4,29.89,North,360,2.0,12.0,9,0.00,,,0.00,318,Wunderground v.1.15,2013-03-25 23:59:00,
2013-03-25 17:09:00,72.6,10.5,29.89,NNE,23,2.0,5.0,9,0.00,,,0.00,278,Wunderground v.1.15,2013-03-26 00:09:00,
2013-03-25 17:19:00,72.4,10.3,29.89,WNW,301,3.0,3.0,9,0.00,,,0.00,234,Wunderground v.1.15,2013-03-26 00:19:00,
2013-03-25 17:29:00,72.2,10.2,29.89,WNW,299,2.0,2.0,9,0.00,,,0.00,188,Wunderground v.1.15,2013-03-26 00:29:00,
2013-03-25 17:39:00,72.3,10.2,29.89,WNW,283,1.0,1.0,9,0.00,,,0.00,144,Wunderground v.1.15,2013-03-26 00:39:00,
2013-03-25 17:49:00,72.1,10.1,29.89,NNE,26,1.0,1.0,9,0.00,,,0.00,98,Wunderground v.1.15,2013-03-26 00:49:00,
2013-03-25 17:59:00,71.4,9.6,29.89,NE,34,2.0,3.0,9,0.00,,,0.00,60,Wunderground v.1.15,2013-03-26 00:59:00,
2013-03-25 18:09:00,70.9,9.2,29.89,North,5,1.0,1.0,9,0.00,,,0.00,21,Wunderground v.1.15,2013-03-26 01:09:00,
2013-03-25 18:19:00,70.1,10.9,29.90,NNW,340,0.0,10.0,10,0.00,,,0.00,14,Wunderground v.1.15,2013-03-26 01:19:00,
2013-03-25 18:29:00,69.3,10.3,29.90,NNW,341,0.0,10.0,10,0.00,,,0.00,9,Wunderground v.1.15,2013-03-26 01:29:00,
2013-03-25 18:39:00,68.0,11.5,29.90,NNW,341,0.0,10.0,11,0.00,,,0.00,0,Wunderground v.1.15,2013-03-26 01:39:00,
2013-03-25 18:49:00,66.6,10.4,29.90,NNW,341,0.0,10.0,11,0.00,,,0.00,0,Wunderground v.1.15,2013-03-26 01:49:00,
2013-03-25 18:59:00,65.4,11.4,29.90,NNW,341,0.0,10.0,12,0.00,,,0.00,0,Wunderground v.1.15,2013-03-26 01:59:00,
2013-03-25 19:09:00,64.4,10.6,29.91,NW,309,0.0,0.0,12,0.00,,,0.00,0,Wunderground v.1.15,2013-03-26 02:09:00,
2013-03-25 19:19:00,62.0,13.8,29.91,WNW,292,0.0,0.0,15,0.00,,,0.00,0,Wunderground v.1.15,2013-03-26 02:19:00,
2013-03-25 19:29:00,60.2,15.2,29.92,WNW,287,0.0,0.0,17,0.00,,,0.00,0,Wunderground v.1.15,2013-03-26 02:29:00,
2013-03-25 19:39:00,59.0,14.2,29.92,WNW,292,0.0,0.0,17,0.00,,,0.00,0,Wunderground v.1.15,2013-03-26 02:39:00,
2013-03-25 19:49:00,58.4,15.0,29.92,WNW,302,1.0,1.0,18,0.00,,,0.00,0,Wunderground v.1.15,2013-03-26 02:49:00,
2013-03-25 19:59:00,58.1,14.8,29.93,WNW,296,2.0,3.0,18,0.00,,,0.00,0,Wunderground v.1.15,2013-03-26 02:59:00,
2013-03-25 20:09:00,58.4,15.0,29.93,NW,306,3.0,4.0,18,0.00,,,0.00,0,Wunderground v.1.15,2013-03-26 03:09:00,
2013-03-25 20:19:00,58.6,15.2,29.93,NW,305,3.0,3.0,18,0.00,,,0.00,0,Wunderground v.1.15,2013-03-26 03:19:00,
2013-03-25 20:29:00,58.6,15.2,29.94,NW,311,2.0,2.0,18,0.00,,,0.00,0,Wunderground v.1.15,2013-03-26 03:29:00,
2013-03-25 20:39:00,58.1,14.8,29.94,WNW,294,1.0,1.0,18,0.00,,,0.00,0,Wunderground v.1.15,2013-03-26 03:39:00,
2013-03-25 20:49:00,57.2,15.2,29.95,NW,316,0.0,0.0,19,0.00,,,0.00,0,Wunderground v.1.15,2013-03-26 03:49:00,
2013-03-25 20:59:00,56.6,14.8,29.95,NW,316,0.0,0.0,19,0.00,,,0.00,0,Wunderground v.1.15,2013-03-26 03:59:00,
2013-03-25 21:09:00,56.6,14.8,29.95,WNW,300,1.0,3.0,19,0.00,,,0.00,0,Wunderground v.1.15,2013-03-26 04:09:00,
2013-03-25 21:19:00,56.9,15.0,29.96,NW,309,3.0,3.0,19,0.00,,,0.00,0,Wunderground v.1.15,2013-03-26 04:19:00,
2013-03-25 21:29:00,56.5,15.8,29.97,NW,306,2.0,2.0,20,0.00,,,0.00,0,Wunderground v.1.15,2013-03-26 04:29:00,
2013-03-25 21:39:00,55.7,15.2,29.97,NW,311,0.0,0.0,20,0.00,,,0.00,0,Wunderground v.1.15,2013-03-26 04:39:00,
2013-03-25 21:49:00,55.1,14.7,29.98,NW,311,0.0,0.0,20,0.00,,,0.00,0,Wunderground v.1.15,2013-03-26 04:49:00,
2013-03-25 21:59:00,54.2,15.1,29.98,NNW,344,0.0,0.0,21,0.00,,,0.00,0,Wunderground v.1.15,2013-03-26 04:59:00,
2013-03-25 22:09:00,53.9,15.9,29.98,NNW,344,0.0,4.0,22,0.00,,,0.00,0,Wunderground v.1.15,2013-03-26 05:09:00,
2013-03-25 22:19:00,53.8,14.7,29.98,NNW,344,0.0,4.0,21,0.00,,,0.00,0,Wunderground v.1.15,2013-03-26 05:19:00,
2013-03-25 22:29:00,53.4,14.4,29.98,NNW,344,0.0,4.0,21,0.00,,,0.00,0,Wunderground v.1.15,2013-03-26 05:29:00,
2013-03-25 22:39:00,52.5,14.7,29.98,NNW,327,0.0,4.0,22,0.00,,,0.00,0,Wunderground v.1.15,2013-03-26 05:39:00,
2013-03-25 22:49:00,51.8,16.1,29.98,WNW,300,0.0,4.0,24,0.00,,,0.00,0,Wunderground v.1.15,2013-03-26 05:49:00,
2013-03-25 22:59:00,51.5,15.8,29.98,WNW,293,0.0,4.0,24,0.00,,,0.00,0,Wunderground v.1.15,2013-03-26 05:59:00,
2013-03-25 23:09:00,51.5,15.8,29.98,WNW,288,0.0,4.0,24,0.00,,,0.00,0,Wunderground v.1.15,2013-03-26 06:09:00,
2013-03-25 23:19:00,51.3,16.6,29.98,WNW,288,0.0,4.0,25,0.00,,,0.00,0,Wunderground v.1.15,2013-03-26 06:19:00,
2013-03-25 23:29:00,51.1,16.4,29.98,SE,136,0.0,4.0,25,0.00,,,0.00,0,Wunderground v.1.15,2013-03-26 06:29:00,
2013-03-25 23:39:00,50.3,14.8,29.98,SE,132,0.0,4.0,24,0.00,,,0.00,0,Wunderground v.1.15,2013-03-26 06:39:00,
2013-03-25 23:49:00,49.2,13.9,29.98,SE,136,0.0,4.0,24,0.00,,,0.00,0,Wunderground v.1.15,2013-03-26 06:49:00,
2013-03-25 23:59:00,48.5,14.2,29.98,SE,136,0.0,4.0,25,0.00,,,0.00,0,Wunderground v.1.15,2013-03-26 06:59:00,